sensor_id;sensor_type;location;lat;lon;timestamp;temperature;humidity
20996;DHT22;10656;52.200;21.052;2023-05-07T00:05:20;6.00;99.90
20996;DHT22;10656;52.200;21.052;2023-05-07T00:35:57;5.90;99.90
20996;DHT22;10656;52.200;21.052;2023-05-07T00:56:14;5.90;99.90
20996;DHT22;10656;52.200;21.052;2023-05-07T01:36:29;5.70;99.90
20996;DHT22;10656;52.200;21.052;2023-05-07T01:56:25;5.60;99.90
20996;DHT22;10656;52.200;21.052;2023-05-07T02:17:13;5.50;99.90
20996;DHT22;10656;52.200;21.052;2023-05-07T02:37:27;5.70;99.90
20996;DHT22;10656;52.200;21.052;2023-05-07T03:07:58;5.40;99.90
20996;DHT22;10656;52.200;21.052;2023-05-07T03:11:01;5.60;99.90
20996;DHT22;10656;52.200;21.052;2023-05-07T03:48:34;5.70;99.90
20996;DHT22;10656;52.200;21.052;2023-05-07T04:18:35;5.90;99.90
20996;DHT22;10656;52.200;21.052;2023-05-07T04:59:29;5.90;99.90
20996;DHT22;10656;52.200;21.052;2023-05-07T05:19:38;6.10;99.90
20996;DHT22;10656;52.200;21.052;2023-05-07T05:40:05;6.60;99.90
20996;DHT22;10656;52.200;21.052;2023-05-07T06:10:21;7.10;99.90
20996;DHT22;10656;52.200;21.052;2023-05-07T07:26:29;8.10;99.90
20996;DHT22;10656;52.200;21.052;2023-05-07T07:56:33;8.50;99.90
20996;DHT22;10656;52.200;21.052;2023-05-07T08:32:16;9.60;96.20
20996;DHT22;10656;52.200;21.052;2023-05-07T08:57:35;9.50;91.70
20996;DHT22;10656;52.200;21.052;2023-05-07T09:33:12;9.50;88.60
20996;DHT22;10656;52.200;21.052;2023-05-07T09:37:31;9.70;85.10
20996;DHT22;10656;52.200;21.052;2023-05-07T09:58:03;9.80;88.10
20996;DHT22;10656;52.200;21.052;2023-05-07T11:04:12;9.70;84.00
20996;DHT22;10656;52.200;21.052;2023-05-07T11:34:47;10.10;83.40
20996;DHT22;10656;52.200;21.052;2023-05-07T12:05:01;10.60;81.50
20996;DHT22;10656;52.200;21.052;2023-05-07T12:50:51;10.60;80.80
20996;DHT22;10656;52.200;21.052;2023-05-07T13:16:01;11.30;79.90
20996;DHT22;10656;52.200;21.052;2023-05-07T13:51:30;12.10;76.90
20996;DHT22;10656;52.200;21.052;2023-05-07T14:21:52;12.70;72.90
20996;DHT22;10656;52.200;21.052;2023-05-07T14:47:04;13.50;63.70
20996;DHT22;10656;52.200;21.052;2023-05-07T15:07:03;13.70;59.80
20996;DHT22;10656;52.200;21.052;2023-05-07T15:28:01;14.70;54.80
20996;DHT22;10656;52.200;21.052;2023-05-07T15:48:07;14.60;49.80
20996;DHT22;10656;52.200;21.052;2023-05-07T16:00:03;15.40;51.70
20996;DHT22;10656;52.200;21.052;2023-05-07T16:13:21;12.60;62.50
20996;DHT22;10656;52.200;21.052;2023-05-07T16:43:37;11.20;73.20
20996;DHT22;10656;52.200;21.052;2023-05-07T17:09:00;10.90;77.20
20996;DHT22;10656;52.200;21.052;2023-05-07T17:34:25;10.00;82.70
20996;DHT22;10656;52.200;21.052;2023-05-07T17:59:36;9.50;83.00
20996;DHT22;10656;52.200;21.052;2023-05-07T18:50:33;7.90;95.60
20996;DHT22;10656;52.200;21.052;2023-05-07T19:25:26;5.90;99.90
20996;DHT22;10656;52.200;21.052;2023-05-07T19:56:09;5.10;99.90
20996;DHT22;10656;52.200;21.052;2023-05-07T20:16:40;4.90;99.90
20996;DHT22;10656;52.200;21.052;2023-05-07T20:46:30;4.40;99.90
20996;DHT22;10656;52.200;21.052;2023-05-07T21:12:27;4.00;99.90
